YTFD weather

Tenterfield Airport
Tenterfield, New South Wales, Australia

Public forecast

Using degrees Celsius for public forecast. Weather courtesy of forecast.io.

METAR (pilot weather report)

Closest report is Casino Airport, 60.1 nm (111.3 km) E. Retrieved 2019/02/15 21:00 UTC (26 minutes ago):

YCAS 152100Z AUTO 10004KT //// // ////// 21/16 Q1019

TAF (pilot weather forecast)

Closest forecast is RAAF Base Amberley, 91.0 nm (168.6 km) NNE. Retrieved 2019/02/15 18:00 UTC (3 hours ago):

TAF YAMB 151642Z 1518/1612 VRB05KT 9999 SCT035 FM152300 15012KT 9999 SCT040 FM160200 12016KT 9999 FEW045 FM160800 15007KT 9999 FEW040